createdAt,value
2018-08-31T00:00:36.653Z,1013.02
2018-08-31T00:01:17.214Z,1013.03
2018-08-31T00:01:57.808Z,1013.03
2018-08-31T00:02:38.371Z,1013.02
2018-08-31T00:03:18.933Z,1012.97
2018-08-31T00:03:59.501Z,1013.05
2018-08-31T00:04:40.060Z,1012.98
2018-08-31T00:05:20.635Z,1013.04
2018-08-31T00:06:01.191Z,1013.01
2018-08-31T00:06:41.751Z,1013.03
2018-08-31T00:07:22.306Z,1013.04
2018-08-31T00:08:02.868Z,1013.05
2018-08-31T00:08:43.434Z,1013.03
2018-08-31T00:09:23.997Z,1013.03
2018-08-31T00:10:04.567Z,1013.02
2018-08-31T00:10:45.132Z,1013.02
2018-08-31T00:11:25.699Z,1013.01
2018-08-31T00:12:06.259Z,1013.02
2018-08-31T00:12:46.843Z,1013.08
2018-08-31T00:13:27.387Z,1013.06
2018-08-31T00:14:07.952Z,1013.06
2018-08-31T00:14:48.519Z,1013.09
2018-08-31T00:15:29.079Z,1013.03
2018-08-31T00:16:09.630Z,1013.05
2018-08-31T00:16:50.186Z,1013.06
2018-08-31T00:17:30.788Z,1013.05
2018-08-31T00:18:11.401Z,1013.02
2018-08-31T00:18:52.016Z,1013.07
2018-08-31T00:19:32.587Z,1013.08
2018-08-31T00:20:13.196Z,1013.02
2018-08-31T00:20:53.789Z,1012.99
2018-08-31T00:21:34.386Z,1012.98
2018-08-31T00:22:15.008Z,1013.01
2018-08-31T00:22:55.502Z,1013.05
2018-08-31T00:23:36.067Z,1013.06
2018-08-31T00:24:16.632Z,1013.08
2018-08-31T00:24:57.212Z,1013.07
2018-08-31T00:25:37.755Z,1013.11
2018-08-31T00:26:18.354Z,1013.09
2018-08-31T00:26:58.932Z,1013.11
2018-08-31T00:27:39.506Z,1013.11
2018-08-31T00:28:20.064Z,1013.15
2018-08-31T00:29:00.688Z,1013.13
2018-08-31T00:29:41.296Z,1013.12
2018-08-31T00:30:21.872Z,1013.16
2018-08-31T00:31:02.436Z,1013.13
2018-08-31T00:31:43.009Z,1013.15
2018-08-31T00:32:23.559Z,1013.14
2018-08-31T00:33:04.300Z,1013.14
2018-08-31T00:33:44.908Z,1013.15
2018-08-31T00:34:25.459Z,1013.12
2018-08-31T00:35:06.036Z,1013.13
2018-08-31T00:35:46.627Z,1013.12
2018-08-31T00:36:27.177Z,1013.15
2018-08-31T00:37:07.735Z,1013.16
2018-08-31T00:37:48.288Z,1013.15
2018-08-31T00:38:28.853Z,1013.16
2018-08-31T00:39:09.416Z,1013.15
2018-08-31T00:39:50.001Z,1013.14
2018-08-31T00:40:30.571Z,1013.13
2018-08-31T00:41:11.133Z,1013.11
2018-08-31T00:41:51.710Z,1013.13
2018-08-31T00:42:32.280Z,1013.14
2018-08-31T00:43:12.890Z,1013.13
2018-08-31T00:43:53.421Z,1013.15
2018-08-31T00:44:33.966Z,1013.12
2018-08-31T00:45:14.516Z,1013.09
2018-08-31T00:45:55.066Z,1013.1
2018-08-31T00:46:35.625Z,1013.1
2018-08-31T00:47:16.212Z,1013.11
2018-08-31T00:47:56.780Z,1013.09
2018-08-31T00:48:37.348Z,1013.09
2018-08-31T00:49:17.955Z,1013.09
2018-08-31T00:49:58.516Z,1013.1
2018-08-31T00:50:39.075Z,1013.09
2018-08-31T00:51:19.630Z,1013.09
2018-08-31T00:52:00.190Z,1013.07
2018-08-31T00:52:40.756Z,1013.06
2018-08-31T00:53:21.313Z,1013.04
2018-08-31T00:54:01.888Z,1013.1
2018-08-31T00:54:42.429Z,1013.11
2018-08-31T00:55:22.986Z,1013.05
2018-08-31T00:56:03.548Z,1013.08
2018-08-31T00:56:44.105Z,1013.09
2018-08-31T00:57:24.690Z,1013.1
2018-08-31T00:58:05.259Z,1013.1
2018-08-31T00:58:45.808Z,1013.06
2018-08-31T00:59:26.362Z,1013.13
2018-08-31T01:00:07.007Z,1013.15
2018-08-31T01:00:47.528Z,1013.14
2018-08-31T01:01:28.085Z,1013.19
2018-08-31T01:02:08.650Z,1013.2
2018-08-31T01:02:49.211Z,1013.16
2018-08-31T01:03:29.762Z,1013.15
2018-08-31T01:04:10.324Z,1013.15
2018-08-31T01:04:50.904Z,1013.11
2018-08-31T01:05:31.521Z,1013.13
2018-08-31T01:06:12.101Z,1013.17
2018-08-31T01:06:52.662Z,1013.16
2018-08-31T01:07:33.252Z,1013.13
2018-08-31T01:08:13.799Z,1013.12
2018-08-31T01:08:54.358Z,1013.12
2018-08-31T01:09:34.923Z,1013.13
2018-08-31T01:10:15.477Z,1013.11
2018-08-31T01:10:56.057Z,1013.12
2018-08-31T01:11:36.615Z,1013.09
2018-08-31T01:12:17.177Z,1013.13
2018-08-31T01:12:57.754Z,1013.15
2018-08-31T01:13:38.323Z,1013.14
2018-08-31T01:14:18.891Z,1013.18
2018-08-31T01:14:59.454Z,1013.13
2018-08-31T01:15:40.013Z,1013.13
2018-08-31T01:16:20.576Z,1013.17
2018-08-31T01:17:01.171Z,1013.16
2018-08-31T01:17:41.725Z,1013.16
2018-08-31T01:18:22.297Z,1013.11
2018-08-31T01:19:02.869Z,1013.14
2018-08-31T01:19:43.435Z,1013.1
2018-08-31T01:20:23.993Z,1013.11
2018-08-31T01:21:04.602Z,1013.08
2018-08-31T01:21:45.159Z,1013.09
2018-08-31T01:22:25.712Z,1013.09
2018-08-31T01:23:06.282Z,1013.13
2018-08-31T01:23:46.844Z,1013.12
2018-08-31T01:24:27.417Z,1013.11
2018-08-31T01:25:07.974Z,1013.04
2018-08-31T01:25:48.536Z,1013.12
2018-08-31T01:26:29.092Z,1013.12
2018-08-31T01:27:09.691Z,1013.09
2018-08-31T01:27:50.232Z,1013.12
2018-08-31T01:28:30.793Z,1013.1
2018-08-31T01:29:11.346Z,1013.16
2018-08-31T01:29:51.914Z,1013.14
2018-08-31T01:30:32.488Z,1013.16
2018-08-31T01:31:13.055Z,1013.15
2018-08-31T01:31:53.626Z,1013.15
2018-08-31T01:32:34.185Z,1013.19
2018-08-31T01:33:14.796Z,1013.19
2018-08-31T01:33:55.349Z,1013.19
2018-08-31T01:34:35.994Z,1013.26
2018-08-31T01:35:16.966Z,1013.28
2018-08-31T01:35:57.500Z,1013.27
2018-08-31T01:36:38.064Z,1013.24
2018-08-31T01:37:18.639Z,1013.3
2018-08-31T01:37:59.184Z,1013.23
2018-08-31T01:38:39.744Z,1013.24
2018-08-31T01:39:20.309Z,1013.24
2018-08-31T01:40:00.876Z,1013.26
2018-08-31T01:40:41.435Z,1013.27
2018-08-31T01:41:22.001Z,1013.27
2018-08-31T01:42:02.566Z,1013.21
2018-08-31T01:42:43.140Z,1013.24
2018-08-31T01:43:23.703Z,1013.25
2018-08-31T01:44:04.268Z,1013.23
2018-08-31T01:44:44.828Z,1013.24
2018-08-31T01:45:25.400Z,1013.27
2018-08-31T01:46:05.969Z,1013.22
2018-08-31T01:46:46.525Z,1013.28
2018-08-31T01:47:27.079Z,1013.27
2018-08-31T01:48:07.660Z,1013.28
2018-08-31T01:48:48.247Z,1013.29
2018-08-31T01:49:28.795Z,1013.28
2018-08-31T01:50:09.370Z,1013.24
2018-08-31T01:50:49.927Z,1013.3
2018-08-31T01:51:30.530Z,1013.25
2018-08-31T01:52:11.092Z,1013.3
2018-08-31T01:52:51.760Z,1013.24
2018-08-31T01:53:32.222Z,1013.24
2018-08-31T01:54:12.792Z,1013.28
2018-08-31T01:54:53.364Z,1013.27
2018-08-31T01:55:33.967Z,1013.26
2018-08-31T01:56:14.526Z,1013.24
2018-08-31T01:56:55.107Z,1013.26
2018-08-31T01:57:35.708Z,1013.25
2018-08-31T01:58:16.276Z,1013.21
2018-08-31T01:58:56.852Z,1013.2
2018-08-31T01:59:37.408Z,1013.22
2018-08-31T02:00:17.984Z,1013.2
2018-08-31T02:00:58.541Z,1013.2
2018-08-31T02:01:39.106Z,1013.25
2018-08-31T02:02:19.667Z,1013.21
2018-08-31T02:03:00.212Z,1013.22
2018-08-31T02:03:40.801Z,1013.17
2018-08-31T02:04:21.369Z,1013.17
2018-08-31T02:05:01.935Z,1013.2
2018-08-31T02:05:42.502Z,1013.23
2018-08-31T02:06:23.066Z,1013.25
2018-08-31T02:07:03.651Z,1013.25
2018-08-31T02:07:44.217Z,1013.21
2018-08-31T02:08:24.790Z,1013.28
2018-08-31T02:09:05.346Z,1013.24
2018-08-31T02:09:45.897Z,1013.25
2018-08-31T02:10:26.471Z,1013.23
2018-08-31T02:11:07.027Z,1013.28
2018-08-31T02:11:47.597Z,1013.27
2018-08-31T02:12:28.159Z,1013.3
2018-08-31T02:13:08.715Z,1013.28
2018-08-31T02:13:49.304Z,1013.29
2018-08-31T02:14:29.868Z,1013.31
2018-08-31T02:15:10.433Z,1013.29
2018-08-31T02:15:50.989Z,1013.29
2018-08-31T02:16:31.560Z,1013.28
2018-08-31T02:17:12.125Z,1013.28
2018-08-31T02:17:52.696Z,1013.31
2018-08-31T02:18:33.262Z,1013.3
2018-08-31T02:19:13.819Z,1013.27
2018-08-31T02:19:54.392Z,1013.27
2018-08-31T02:20:34.951Z,1013.28
2018-08-31T02:21:15.536Z,1013.28
2018-08-31T02:21:56.115Z,1013.25
2018-08-31T02:22:36.704Z,1013.25
2018-08-31T02:23:17.258Z,1013.27
2018-08-31T02:23:57.833Z,1013.29
2018-08-31T02:24:38.396Z,1013.28
2018-08-31T02:25:18.957Z,1013.25
2018-08-31T02:25:59.699Z,1013.26
2018-08-31T02:26:40.273Z,1013.27
2018-08-31T02:27:20.823Z,1013.18
2018-08-31T02:28:01.383Z,1013.19
2018-08-31T02:28:41.939Z,1013.27
2018-08-31T02:29:22.490Z,1013.26
2018-08-31T02:30:03.080Z,1013.26
2018-08-31T02:30:43.661Z,1013.24
2018-08-31T02:31:24.223Z,1013.24
2018-08-31T02:32:04.815Z,1013.23
2018-08-31T02:32:45.384Z,1013.3
2018-08-31T02:33:25.950Z,1013.25
2018-08-31T02:34:06.509Z,1013.26
2018-08-31T02:34:47.086Z,1013.28
2018-08-31T02:35:27.646Z,1013.25
2018-08-31T02:36:08.237Z,1013.26
2018-08-31T02:36:48.875Z,1013.29
2018-08-31T02:37:29.472Z,1013.27
2018-08-31T02:38:10.042Z,1013.31
2018-08-31T02:38:50.614Z,1013.3
2018-08-31T02:39:31.190Z,1013.26
2018-08-31T02:40:11.759Z,1013.27
2018-08-31T02:40:52.342Z,1013.27
2018-08-31T02:41:32.946Z,1013.3
2018-08-31T02:42:13.496Z,1013.29
2018-08-31T02:42:54.072Z,1013.29
2018-08-31T02:43:34.630Z,1013.35
2018-08-31T02:44:15.177Z,1013.39
2018-08-31T02:44:55.746Z,1013.29
2018-08-31T02:45:36.310Z,1013.35
2018-08-31T02:46:16.897Z,1013.35
2018-08-31T02:46:57.455Z,1013.35
2018-08-31T02:47:38.022Z,1013.35
2018-08-31T02:48:18.617Z,1013.35
2018-08-31T02:48:59.189Z,1013.37
2018-08-31T02:49:39.762Z,1013.4
2018-08-31T02:50:20.330Z,1013.42
2018-08-31T02:51:00.887Z,1013.4
2018-08-31T02:51:41.457Z,1013.4
2018-08-31T02:52:22.024Z,1013.46
2018-08-31T02:53:02.596Z,1013.48
2018-08-31T02:53:43.156Z,1013.46
2018-08-31T02:54:23.732Z,1013.47
2018-08-31T02:55:04.307Z,1013.48
2018-08-31T02:55:44.892Z,1013.47
2018-08-31T02:56:25.455Z,1013.52
2018-08-31T02:57:06.033Z,1013.44
2018-08-31T02:57:46.596Z,1013.45
2018-08-31T02:58:27.161Z,1013.53
2018-08-31T02:59:07.729Z,1013.5
2018-08-31T02:59:48.302Z,1013.48
2018-08-31T03:00:28.870Z,1013.46
2018-08-31T03:01:09.431Z,1013.46
2018-08-31T03:01:50.056Z,1013.47
2018-08-31T03:02:30.621Z,1013.45
2018-08-31T03:03:11.236Z,1013.47
2018-08-31T03:03:51.816Z,1013.48
2018-08-31T03:04:32.406Z,1013.48
2018-08-31T03:05:12.969Z,1013.5
2018-08-31T03:05:53.555Z,1013.49
2018-08-31T03:06:34.130Z,1013.53
2018-08-31T03:07:14.700Z,1013.55
2018-08-31T03:07:55.241Z,1013.52
2018-08-31T03:08:35.808Z,1013.54
2018-08-31T03:09:16.373Z,1013.59
2018-08-31T03:09:56.945Z,1013.54
2018-08-31T03:10:37.507Z,1013.58
2018-08-31T03:11:18.058Z,1013.61
2018-08-31T03:11:58.623Z,1013.59
2018-08-31T03:12:39.197Z,1013.59
2018-08-31T03:13:19.746Z,1013.63
2018-08-31T03:14:00.324Z,1013.61
2018-08-31T03:14:40.928Z,1013.68
2018-08-31T03:15:21.505Z,1013.65
2018-08-31T03:16:02.058Z,1013.65
2018-08-31T03:16:42.618Z,1013.64
2018-08-31T03:17:23.181Z,1013.66
2018-08-31T03:18:03.780Z,1013.66
2018-08-31T03:18:44.353Z,1013.63
2018-08-31T03:19:24.931Z,1013.59
2018-08-31T03:20:05.495Z,1013.66
2018-08-31T03:20:46.055Z,1013.61
2018-08-31T03:21:26.654Z,1013.66
2018-08-31T03:22:07.244Z,1013.61
2018-08-31T03:22:47.819Z,1013.67
2018-08-31T03:23:28.377Z,1013.66
2018-08-31T03:24:08.935Z,1013.64
2018-08-31T03:24:49.498Z,1013.65
2018-08-31T03:25:30.082Z,1013.67
2018-08-31T03:26:10.646Z,1013.68
2018-08-31T03:26:51.219Z,1013.67
2018-08-31T03:27:31.775Z,1013.75
2018-08-31T03:28:12.349Z,1013.71
2018-08-31T03:28:52.914Z,1013.73
2018-08-31T03:29:33.478Z,1013.76
2018-08-31T03:30:14.065Z,1013.74
2018-08-31T03:30:54.625Z,1013.78
2018-08-31T03:31:35.250Z,1013.75
2018-08-31T03:32:15.795Z,1013.77
2018-08-31T03:32:56.364Z,1013.8
2018-08-31T03:33:36.927Z,1013.75
2018-08-31T03:34:17.487Z,1013.78
2018-08-31T03:34:58.052Z,1013.81
2018-08-31T03:35:38.614Z,1013.78
2018-08-31T03:36:19.178Z,1013.77
2018-08-31T03:36:59.778Z,1013.8
2018-08-31T03:37:40.313Z,1013.78
2018-08-31T03:38:20.869Z,1013.74
2018-08-31T03:39:01.427Z,1013.77
2018-08-31T03:39:41.992Z,1013.77
2018-08-31T03:40:22.547Z,1013.76
2018-08-31T03:41:03.133Z,1013.7
2018-08-31T03:41:43.694Z,1013.75
2018-08-31T03:42:24.247Z,1013.75
2018-08-31T03:43:04.818Z,1013.7
2018-08-31T03:43:45.412Z,1013.67
2018-08-31T03:44:25.983Z,1013.7
2018-08-31T03:45:06.559Z,1013.66
2018-08-31T03:45:47.120Z,1013.69
2018-08-31T03:46:27.689Z,1013.7
2018-08-31T03:47:08.260Z,1013.64
2018-08-31T03:47:48.855Z,1013.64
2018-08-31T03:48:29.477Z,1013.65
2018-08-31T03:49:10.040Z,1013.62
2018-08-31T03:49:50.615Z,1013.64
2018-08-31T03:50:31.162Z,1013.64
2018-08-31T03:51:11.736Z,1013.65
2018-08-31T03:51:52.336Z,1013.69
2018-08-31T03:52:32.898Z,1013.66
2018-08-31T03:53:13.464Z,1013.64
2018-08-31T03:53:54.039Z,1013.68
2018-08-31T03:54:34.641Z,1013.6
2018-08-31T03:55:15.286Z,1013.62
2018-08-31T03:55:55.866Z,1013.65
2018-08-31T03:56:36.422Z,1013.6
2018-08-31T03:57:16.985Z,1013.59
2018-08-31T03:57:57.552Z,1013.57
2018-08-31T03:58:38.099Z,1013.63
2018-08-31T03:59:18.715Z,1013.61
2018-08-31T03:59:59.283Z,1013.66
2018-08-31T04:00:39.841Z,1013.65
2018-08-31T04:01:20.427Z,1013.61
2018-08-31T04:02:01.018Z,1013.66
2018-08-31T04:02:41.780Z,1013.62
2018-08-31T04:03:22.338Z,1013.61
2018-08-31T04:04:02.887Z,1013.63
2018-08-31T04:04:43.455Z,1013.63
2018-08-31T04:05:24.012Z,1013.64
2018-08-31T04:06:04.584Z,1013.63
2018-08-31T04:06:45.156Z,1013.63
2018-08-31T04:07:25.745Z,1013.67
2018-08-31T04:08:06.392Z,1013.66
2018-08-31T04:08:46.951Z,1013.69
2018-08-31T04:09:27.550Z,1013.72
2018-08-31T04:10:08.134Z,1013.72
2018-08-31T04:10:48.695Z,1013.72
2018-08-31T04:11:29.333Z,1013.76
2018-08-31T04:12:09.899Z,1013.74
2018-08-31T04:12:50.450Z,1013.8
2018-08-31T04:13:31.022Z,1013.82
2018-08-31T04:14:11.578Z,1013.82
2018-08-31T04:14:52.235Z,1013.8
2018-08-31T04:15:32.764Z,1013.81
2018-08-31T04:16:13.328Z,1013.8
2018-08-31T04:16:53.906Z,1013.8
2018-08-31T04:17:34.528Z,1013.82
2018-08-31T04:18:15.071Z,1013.82
2018-08-31T04:18:55.627Z,1013.81
2018-08-31T04:19:36.200Z,1013.82
2018-08-31T04:20:16.781Z,1013.82
2018-08-31T04:20:57.370Z,1013.84
2018-08-31T04:21:37.949Z,1013.83
2018-08-31T04:22:18.532Z,1013.82
2018-08-31T04:22:59.104Z,1013.84
2018-08-31T04:23:39.657Z,1013.87
2018-08-31T04:24:20.232Z,1013.86
2018-08-31T04:25:00.861Z,1013.81
2018-08-31T04:25:41.391Z,1013.87
2018-08-31T04:26:21.986Z,1013.86
2018-08-31T04:27:02.557Z,1013.86
2018-08-31T04:27:43.176Z,1013.84
2018-08-31T04:28:23.743Z,1013.89
2018-08-31T04:29:04.302Z,1013.84
2018-08-31T04:29:44.884Z,1013.86
2018-08-31T04:30:25.461Z,1013.88
2018-08-31T04:31:06.040Z,1013.86
2018-08-31T04:31:46.602Z,1013.87
2018-08-31T04:32:27.150Z,1013.91
2018-08-31T04:33:07.723Z,1013.93
2018-08-31T04:33:48.277Z,1013.9
2018-08-31T04:34:30.667Z,1013.91
2018-08-31T04:35:11.241Z,1013.93
2018-08-31T04:35:51.853Z,1013.91
2018-08-31T04:36:32.444Z,1013.94
2018-08-31T04:37:13.026Z,1013.93
2018-08-31T04:37:53.584Z,1013.9
2018-08-31T04:38:34.207Z,1013.92
2018-08-31T04:39:14.803Z,1013.95
2018-08-31T04:39:55.390Z,1013.94
2018-08-31T04:40:35.952Z,1013.96
2018-08-31T04:41:16.519Z,1013.92
2018-08-31T04:41:57.114Z,1013.93
2018-08-31T04:42:37.695Z,1013.97
2018-08-31T04:43:18.257Z,1013.95
2018-08-31T04:43:58.823Z,1013.94
2018-08-31T04:44:39.405Z,1013.98
2018-08-31T04:45:19.974Z,1013.93
2018-08-31T04:46:00.543Z,1013.96
2018-08-31T04:46:41.098Z,1013.99
2018-08-31T04:47:21.681Z,1013.94
2018-08-31T04:48:02.279Z,1013.94
2018-08-31T04:48:42.844Z,1013.96
2018-08-31T04:49:23.400Z,1013.95
2018-08-31T04:50:04.004Z,1013.97
2018-08-31T04:50:44.574Z,1013.95
2018-08-31T04:51:25.160Z,1013.96
2018-08-31T04:52:05.724Z,1013.97
2018-08-31T04:52:46.282Z,1014.01
2018-08-31T04:53:26.844Z,1013.96
2018-08-31T04:54:07.398Z,1014
2018-08-31T04:54:47.974Z,1013.95
2018-08-31T04:55:28.534Z,1014.01
2018-08-31T04:56:09.121Z,1014.01
2018-08-31T04:56:49.687Z,1014.03
2018-08-31T04:57:30.245Z,1013.99
2018-08-31T04:58:10.838Z,1013.99
2018-08-31T04:58:51.425Z,1013.96
2018-08-31T04:59:31.971Z,1014.03
2018-08-31T05:00:12.560Z,1014.04
2018-08-31T05:00:53.147Z,1014.05
2018-08-31T05:01:33.709Z,1014.08
2018-08-31T05:02:14.270Z,1014.07
2018-08-31T05:02:54.825Z,1014.06
2018-08-31T05:03:35.391Z,1014.03
2018-08-31T05:04:15.959Z,1014
2018-08-31T05:04:56.629Z,1014
2018-08-31T05:05:37.180Z,1013.96
2018-08-31T05:06:17.729Z,1013.96
2018-08-31T05:06:58.289Z,1013.91
2018-08-31T05:07:38.861Z,1013.93
2018-08-31T05:08:19.466Z,1013.96
2018-08-31T05:09:00.027Z,1013.92
2018-08-31T05:09:40.609Z,1013.95
2018-08-31T05:10:21.162Z,1013.92
2018-08-31T05:11:01.744Z,1013.96
2018-08-31T05:11:42.310Z,1014
2018-08-31T05:12:22.876Z,1013.99
2018-08-31T05:13:03.433Z,1013.96
2018-08-31T05:13:43.989Z,1014
2018-08-31T05:14:24.564Z,1014.01
2018-08-31T05:15:05.115Z,1014.01
2018-08-31T05:15:45.675Z,1014
2018-08-31T05:16:26.310Z,1014.01
2018-08-31T05:17:06.868Z,1014.04
2018-08-31T05:17:47.454Z,1014.08
2018-08-31T05:18:28.046Z,1014.04
2018-08-31T05:19:08.599Z,1014.01
2018-08-31T05:19:49.156Z,1014.02
2018-08-31T05:20:29.711Z,1014.04
2018-08-31T05:21:10.273Z,1014.02
2018-08-31T05:21:50.859Z,1014.03
2018-08-31T05:22:31.479Z,1014.04
2018-08-31T05:23:11.962Z,1014.02
2018-08-31T05:23:52.536Z,1014.04
2018-08-31T05:24:33.102Z,1014.05
2018-08-31T05:25:13.668Z,1014.04
2018-08-31T05:25:54.272Z,1014.03
2018-08-31T05:26:34.838Z,1014.04
2018-08-31T05:27:15.477Z,1014.1
2018-08-31T05:27:56.035Z,1014.07
2018-08-31T05:28:36.668Z,1014.11
2018-08-31T05:29:17.234Z,1014.05
2018-08-31T05:29:57.786Z,1014.08
2018-08-31T05:30:38.428Z,1014.1
2018-08-31T05:31:18.989Z,1014.12
2018-08-31T05:31:59.567Z,1014.14
2018-08-31T05:32:40.136Z,1014.13
2018-08-31T05:33:20.696Z,1014.17
2018-08-31T05:34:01.283Z,1014.17
2018-08-31T05:34:41.813Z,1014.13
2018-08-31T05:35:22.370Z,1014.16
2018-08-31T05:36:02.970Z,1014.18
2018-08-31T05:36:43.524Z,1014.18
2018-08-31T05:37:24.144Z,1014.18
2018-08-31T05:38:04.814Z,1014.23
2018-08-31T05:38:45.409Z,1014.21
2018-08-31T05:39:25.957Z,1014.21
2018-08-31T05:40:06.515Z,1014.22
2018-08-31T05:40:47.103Z,1014.23
2018-08-31T05:41:27.657Z,1014.18
2018-08-31T05:42:08.214Z,1014.16
2018-08-31T05:42:48.787Z,1014.19
2018-08-31T05:43:29.336Z,1014.23
2018-08-31T05:44:09.902Z,1014.22
2018-08-31T05:44:50.476Z,1014.23
2018-08-31T05:45:31.036Z,1014.29
2018-08-31T05:46:11.587Z,1014.26
2018-08-31T05:46:52.131Z,1014.27
2018-08-31T05:47:32.690Z,1014.26
2018-08-31T05:48:13.268Z,1014.28
2018-08-31T05:48:54.131Z,1014.28
2018-08-31T05:49:34.819Z,1014.28
2018-08-31T05:50:15.378Z,1014.28
2018-08-31T05:50:55.943Z,1014.28
2018-08-31T05:51:36.498Z,1014.26
2018-08-31T05:52:17.055Z,1014.29
2018-08-31T05:52:57.600Z,1014.3
2018-08-31T05:53:38.230Z,1014.3
2018-08-31T05:54:18.784Z,1014.31
2018-08-31T05:54:59.338Z,1014.26
2018-08-31T05:55:39.897Z,1014.28
2018-08-31T05:56:20.480Z,1014.28
2018-08-31T05:57:01.074Z,1014.31
2018-08-31T05:57:41.646Z,1014.26
2018-08-31T05:58:22.236Z,1014.33
2018-08-31T05:59:02.797Z,1014.26
2018-08-31T05:59:43.534Z,1014.29
2018-08-31T06:00:24.073Z,1014.34
2018-08-31T06:01:04.644Z,1014.35
2018-08-31T06:01:45.286Z,1014.33
2018-08-31T06:02:25.842Z,1014.35
2018-08-31T06:03:06.403Z,1014.38
2018-08-31T06:03:46.987Z,1014.37
2018-08-31T06:04:27.573Z,1014.4
2018-08-31T06:05:08.121Z,1014.41
2018-08-31T06:05:48.670Z,1014.41
2018-08-31T06:06:29.230Z,1014.4
2018-08-31T06:07:09.807Z,1014.43
2018-08-31T06:07:50.391Z,1014.41
2018-08-31T06:08:30.956Z,1014.46
2018-08-31T06:09:11.521Z,1014.44
2018-08-31T06:09:52.077Z,1014.47
2018-08-31T06:10:32.671Z,1014.48
2018-08-31T06:11:13.240Z,1014.47
2018-08-31T06:11:53.821Z,1014.47
2018-08-31T06:12:34.376Z,1014.49
2018-08-31T06:13:14.979Z,1014.49
2018-08-31T06:13:55.522Z,1014.48
2018-08-31T06:14:36.096Z,1014.49
2018-08-31T06:15:16.672Z,1014.49
2018-08-31T06:15:57.223Z,1014.52
2018-08-31T06:16:37.788Z,1014.53
2018-08-31T06:17:18.585Z,1014.52
2018-08-31T06:17:59.168Z,1014.62
2018-08-31T06:18:39.724Z,1014.55
2018-08-31T06:19:20.290Z,1014.57
2018-08-31T06:20:00.842Z,1014.57
2018-08-31T06:20:41.495Z,1014.58
2018-08-31T06:21:22.106Z,1014.59
2018-08-31T06:22:02.657Z,1014.56
2018-08-31T06:22:43.881Z,1014.62
2018-08-31T06:23:24.447Z,1014.6
2018-08-31T06:24:05.359Z,1014.59
2018-08-31T06:24:46.187Z,1014.6
2018-08-31T06:25:27.099Z,1014.59
2018-08-31T06:26:07.923Z,1014.6
2018-08-31T06:26:48.635Z,1014.56
2018-08-31T06:27:29.564Z,1014.61
2018-08-31T06:28:12.615Z,1014.59
2018-08-31T06:28:53.200Z,1014.59
2018-08-31T06:29:33.779Z,1014.57
2018-08-31T06:30:14.360Z,1014.57
2018-08-31T06:30:54.915Z,1014.54
2018-08-31T06:31:35.504Z,1014.53
2018-08-31T06:32:16.149Z,1014.56
2018-08-31T06:32:56.738Z,1014.58
2018-08-31T06:33:37.335Z,1014.56
2018-08-31T06:34:18.233Z,1014.53
2018-08-31T06:34:58.865Z,1014.54
2018-08-31T06:35:39.444Z,1014.51
2018-08-31T06:36:20.043Z,1014.54
2018-08-31T06:37:00.633Z,1014.56
2018-08-31T06:37:41.456Z,1014.56
2018-08-31T06:38:21.983Z,1014.55
2018-08-31T06:39:02.682Z,1014.54
2018-08-31T06:39:43.199Z,1014.55
2018-08-31T06:40:23.821Z,1014.53
2018-08-31T06:41:04.405Z,1014.56
2018-08-31T06:41:45.048Z,1014.51
2018-08-31T06:42:25.606Z,1014.53
2018-08-31T06:43:06.188Z,1014.61
2018-08-31T06:43:46.928Z,1014.56
2018-08-31T06:44:27.522Z,1014.59
2018-08-31T06:45:08.117Z,1014.6
2018-08-31T06:45:48.724Z,1014.63
2018-08-31T06:46:29.339Z,1014.58
2018-08-31T06:47:09.952Z,1014.66
2018-08-31T06:47:50.533Z,1014.69
2018-08-31T06:48:31.127Z,1014.67
2018-08-31T06:49:11.772Z,1014.71
2018-08-31T06:49:52.335Z,1014.72
2018-08-31T06:50:32.964Z,1014.74
2018-08-31T06:51:13.621Z,1014.73
2018-08-31T06:51:54.129Z,1014.75
2018-08-31T06:52:34.721Z,1014.72
2018-08-31T06:53:15.321Z,1014.77
2018-08-31T06:53:56.041Z,1014.74
2018-08-31T06:54:36.633Z,1014.79
2018-08-31T06:55:17.254Z,1014.78
2018-08-31T06:55:57.913Z,1014.75
2018-08-31T06:56:38.451Z,1014.76
2018-08-31T06:57:19.029Z,1014.77
2018-08-31T06:57:59.622Z,1014.79
2018-08-31T06:58:40.202Z,1014.79
2018-08-31T06:59:20.771Z,1014.79
2018-08-31T07:00:01.368Z,1014.79
2018-08-31T07:00:42.264Z,1014.77
2018-08-31T07:01:22.853Z,1014.78
2018-08-31T07:02:03.500Z,1014.79
2018-08-31T07:02:44.104Z,1014.79
2018-08-31T07:03:25.088Z,1014.81
2018-08-31T07:04:05.802Z,1014.88
2018-08-31T07:04:46.654Z,1014.86
2018-08-31T07:05:27.254Z,1014.87
2018-08-31T07:06:07.969Z,1014.82
2018-08-31T07:06:48.606Z,1014.83
2018-08-31T07:07:29.212Z,1014.86
2018-08-31T07:08:09.804Z,1014.87
2018-08-31T07:08:50.464Z,1014.89
2018-08-31T07:09:31.057Z,1014.96
2018-08-31T07:10:11.615Z,1014.91
2018-08-31T07:10:52.248Z,1014.93
2018-08-31T07:11:32.966Z,1014.91
2018-08-31T07:12:13.709Z,1014.98
2018-08-31T07:12:54.409Z,1014.97
2018-08-31T07:13:34.996Z,1014.98
2018-08-31T07:14:15.648Z,1014.93
2018-08-31T07:14:56.385Z,1014.91
2018-08-31T07:15:36.828Z,1014.94
2018-08-31T07:16:17.443Z,1014.96
2018-08-31T07:16:58.198Z,1014.93
2018-08-31T07:17:38.899Z,1014.95
2018-08-31T07:18:19.484Z,1014.93
2018-08-31T07:19:00.153Z,1014.96
2018-08-31T07:19:40.834Z,1015
2018-08-31T07:20:21.290Z,1014.93
2018-08-31T07:21:01.973Z,1014.94
2018-08-31T07:21:42.708Z,1014.94
2018-08-31T07:22:23.346Z,1014.92
2018-08-31T07:23:04.048Z,1014.93
2018-08-31T07:23:44.685Z,1014.98
2018-08-31T07:24:25.261Z,1014.97
2018-08-31T07:25:05.832Z,1014.97
2018-08-31T07:25:46.483Z,1014.98
2018-08-31T07:26:27.114Z,1015.02
2018-08-31T07:27:07.704Z,1015.01
2018-08-31T07:27:48.350Z,1015.05
2018-08-31T07:28:28.903Z,1015
2018-08-31T07:29:09.495Z,1014.98
2018-08-31T07:29:50.088Z,1015.01
2018-08-31T07:30:30.663Z,1014.99
2018-08-31T07:31:11.289Z,1014.99
2018-08-31T07:31:51.808Z,1015.04
2018-08-31T07:32:32.389Z,1015.01
2018-08-31T07:33:12.949Z,1015.04
2018-08-31T07:33:53.518Z,1015.04
2018-08-31T07:34:34.082Z,1015.06
2018-08-31T07:35:14.645Z,1015.07
2018-08-31T07:35:55.216Z,1015.11
2018-08-31T07:36:35.785Z,1015.08
2018-08-31T07:37:16.342Z,1015.12
2018-08-31T07:37:56.893Z,1015.1
2018-08-31T07:38:37.523Z,1015.09
2018-08-31T07:39:18.096Z,1015.08
2018-08-31T07:39:58.630Z,1015.12
2018-08-31T07:40:39.184Z,1015.13
2018-08-31T07:41:19.747Z,1015.13
2018-08-31T07:42:00.305Z,1015.13
2018-08-31T07:42:40.873Z,1015.15
2018-08-31T07:43:21.436Z,1015.18
2018-08-31T07:44:02.004Z,1015.18
2018-08-31T07:44:42.568Z,1015.21
2018-08-31T07:45:23.129Z,1015.19
2018-08-31T07:46:03.689Z,1015.2
2018-08-31T07:46:44.260Z,1015.23
2018-08-31T07:47:24.842Z,1015.28
2018-08-31T07:48:05.409Z,1015.26
2018-08-31T07:48:45.972Z,1015.27
2018-08-31T07:49:26.527Z,1015.25
2018-08-31T07:50:07.228Z,1015.29
2018-08-31T07:50:47.799Z,1015.28
2018-08-31T07:51:28.367Z,1015.27
2018-08-31T07:52:08.932Z,1015.33
2018-08-31T07:52:49.526Z,1015.29
2018-08-31T07:53:30.082Z,1015.29
2018-08-31T07:54:10.655Z,1015.28
2018-08-31T07:54:51.210Z,1015.29
2018-08-31T07:55:31.809Z,1015.26
2018-08-31T07:56:12.421Z,1015.3
2018-08-31T07:56:52.974Z,1015.28
2018-08-31T07:57:33.598Z,1015.31
2018-08-31T07:58:14.153Z,1015.3
2018-08-31T07:58:54.733Z,1015.24
2018-08-31T07:59:35.291Z,1015.28
2018-08-31T08:00:15.856Z,1015.3
2018-08-31T08:00:56.408Z,1015.31
2018-08-31T08:01:36.983Z,1015.3
2018-08-31T08:02:17.548Z,1015.28
2018-08-31T08:02:58.117Z,1015.27
2018-08-31T08:03:38.695Z,1015.3
2018-08-31T08:04:19.253Z,1015.3
2018-08-31T08:04:59.833Z,1015.35
2018-08-31T08:05:40.411Z,1015.35
2018-08-31T08:06:20.947Z,1015.33
2018-08-31T08:07:01.568Z,1015.35
2018-08-31T08:07:42.152Z,1015.33
2018-08-31T08:08:22.712Z,1015.38
